sensor_id;sensor_type;location;lat;lon;timestamp;pressure;altitude;pressure_sealevel;temperature;humidity
45888;BME280;31595;51.418;7.572;2022-12-11T00:02:12;99788.50;;;4.17;60.17
45888;BME280;31595;51.418;7.572;2022-12-11T00:04:42;99791.22;;;4.22;60.09
45888;BME280;31595;51.418;7.572;2022-12-11T00:07:11;99785.50;;;4.14;61.29
45888;BME280;31595;51.418;7.572;2022-12-11T00:09:38;99791.44;;;4.26;60.13
45888;BME280;31595;51.418;7.572;2022-12-11T00:12:07;99786.53;;;4.23;60.09
45888;BME280;31595;51.418;7.572;2022-12-11T00:14:34;99787.63;;;4.22;61.08
45888;BME280;31595;51.418;7.572;2022-12-11T00:17:01;99791.16;;;4.27;61.07
45888;BME280;31595;51.418;7.572;2022-12-11T00:19:29;99786.25;;;4.24;61.06
45888;BME280;31595;51.418;7.572;2022-12-11T00:21:56;99783.75;;;4.23;60.96
45888;BME280;31595;51.418;7.572;2022-12-11T00:24:25;99787.06;;;4.25;61.14
45888;BME280;31595;51.418;7.572;2022-12-11T00:26:52;99790.19;;;4.13;61.48
45888;BME280;31595;51.418;7.572;2022-12-11T00:29:19;99785.28;;;4.05;61.62
45888;BME280;31595;51.418;7.572;2022-12-11T00:31:47;99785.59;;;4.03;60.44
45888;BME280;31595;51.418;7.572;2022-12-11T00:34:14;99788.28;;;4.09;60.77
45888;BME280;31595;51.418;7.572;2022-12-11T00:36:43;99786.75;;;3.97;60.84
45888;BME280;31595;51.418;7.572;2022-12-11T00:39:13;99789.50;;;3.92;61.38
45888;BME280;31595;51.418;7.572;2022-12-11T00:41:42;99780.63;;;4.00;61.04
45888;BME280;31595;51.418;7.572;2022-12-11T00:44:09;99794.66;;;4.04;61.41
45888;BME280;31595;51.418;7.572;2022-12-11T00:46:37;99791.09;;;4.03;61.48
45888;BME280;31595;51.418;7.572;2022-12-11T00:49:04;99786.16;;;4.00;61.52
45888;BME280;31595;51.418;7.572;2022-12-11T00:51:31;99794.47;;;3.95;61.30
45888;BME280;31595;51.418;7.572;2022-12-11T00:53:58;99794.00;;;3.83;62.26
45888;BME280;31595;51.418;7.572;2022-12-11T00:56:26;99788.50;;;3.78;62.58
45888;BME280;31595;51.418;7.572;2022-12-11T00:58:55;99796.75;;;3.83;62.37
45888;BME280;31595;51.418;7.572;2022-12-11T01:01:23;99789.97;;;3.65;62.79
45888;BME280;31595;51.418;7.572;2022-12-11T01:03:51;99790.28;;;3.58;62.22
45888;BME280;31595;51.418;7.572;2022-12-11T01:06:22;99795.53;;;3.55;63.29
45888;BME280;31595;51.418;7.572;2022-12-11T01:08:50;99792.19;;;3.63;62.70
45888;BME280;31595;51.418;7.572;2022-12-11T01:11:40;99796.56;;;3.69;63.33
45888;BME280;31595;51.418;7.572;2022-12-11T01:14:08;99788.03;;;3.71;63.37
45888;BME280;31595;51.418;7.572;2022-12-11T01:16:36;99784.94;;;3.82;62.37
45888;BME280;31595;51.418;7.572;2022-12-11T01:19:03;99786.28;;;3.85;62.51
45888;BME280;31595;51.418;7.572;2022-12-11T01:21:30;99792.03;;;3.89;63.56
45888;BME280;31595;51.418;7.572;2022-12-11T01:23:58;99794.22;;;3.92;62.24
45888;BME280;31595;51.418;7.572;2022-12-11T01:26:25;99790.09;;;3.89;62.17
45888;BME280;31595;51.418;7.572;2022-12-11T01:28:52;99793.34;;;3.96;63.03
45888;BME280;31595;51.418;7.572;2022-12-11T01:31:21;99793.59;;;4.00;61.83
45888;BME280;31595;51.418;7.572;2022-12-11T01:33:48;99794.47;;;3.95;62.48
45888;BME280;31595;51.418;7.572;2022-12-11T01:36:18;99793.41;;;3.91;62.89
45888;BME280;31595;51.418;7.572;2022-12-11T01:38:46;99793.94;;;3.93;62.99
45888;BME280;31595;51.418;7.572;2022-12-11T01:41:14;99790.63;;;3.91;62.58
45888;BME280;31595;51.418;7.572;2022-12-11T01:44:03;99791.19;;;3.88;63.17
45888;BME280;31595;51.418;7.572;2022-12-11T01:46:33;99786.81;;;3.87;63.60
45888;BME280;31595;51.418;7.572;2022-12-11T01:49:04;99785.41;;;3.90;63.47
45888;BME280;31595;51.418;7.572;2022-12-11T01:51:39;99796.34;;;4.00;63.61
45888;BME280;31595;51.418;7.572;2022-12-11T01:54:10;99789.50;;;3.92;62.98
45888;BME280;31595;51.418;7.572;2022-12-11T01:56:38;99795.63;;;3.89;63.03
45888;BME280;31595;51.418;7.572;2022-12-11T01:59:12;99792.31;;;3.87;63.79
45888;BME280;31595;51.418;7.572;2022-12-11T02:01:46;99796.22;;;3.81;62.54
45888;BME280;31595;51.418;7.572;2022-12-11T02:04:15;99796.78;;;3.78;62.67
45888;BME280;31595;51.418;7.572;2022-12-11T02:06:45;99798.50;;;3.69;63.12
45888;BME280;31595;51.418;7.572;2022-12-11T02:09:14;99795.19;;;3.72;62.42
45888;BME280;31595;51.418;7.572;2022-12-11T02:11:48;99793.75;;;3.79;62.97
45888;BME280;31595;51.418;7.572;2022-12-11T02:14:25;99792.38;;;3.77;62.45
45888;BME280;31595;51.418;7.572;2022-12-11T02:17:00;99781.03;;;3.83;63.12
45888;BME280;31595;51.418;7.572;2022-12-11T02:19:44;99786.94;;;3.66;63.02
45888;BME280;31595;51.418;7.572;2022-12-11T02:22:21;99781.41;;;3.72;62.58
45888;BME280;31595;51.418;7.572;2022-12-11T02:25:03;99785.31;;;3.65;62.91
45888;BME280;31595;51.418;7.572;2022-12-11T02:27:35;99783.00;;;3.78;62.63
45888;BME280;31595;51.418;7.572;2022-12-11T02:30:09;99772.50;;;3.85;62.78
45888;BME280;31595;51.418;7.572;2022-12-11T02:32:42;99775.53;;;3.83;62.63
45888;BME280;31595;51.418;7.572;2022-12-11T02:35:14;99776.59;;;3.88;62.34
45888;BME280;31595;51.418;7.572;2022-12-11T02:37:44;99774.44;;;3.84;62.66
45888;BME280;31595;51.418;7.572;2022-12-11T02:40:16;99770.91;;;3.74;63.02
45888;BME280;31595;51.418;7.572;2022-12-11T02:42:49;99771.69;;;3.84;62.54
45888;BME280;31595;51.418;7.572;2022-12-11T02:45:21;99770.84;;;3.84;63.02
45888;BME280;31595;51.418;7.572;2022-12-11T02:47:50;99776.34;;;3.84;62.94
45888;BME280;31595;51.418;7.572;2022-12-11T02:50:20;99778.81;;;3.85;62.55
45888;BME280;31595;51.418;7.572;2022-12-11T02:52:50;99780.19;;;3.88;62.20
45888;BME280;31595;51.418;7.572;2022-12-11T02:55:21;99778.00;;;3.85;62.57
45888;BME280;31595;51.418;7.572;2022-12-11T02:57:54;99777.81;;;3.71;62.02
45888;BME280;31595;51.418;7.572;2022-12-11T03:00:24;99773.66;;;3.79;62.53
45888;BME280;31595;51.418;7.572;2022-12-11T03:02:51;99771.97;;;3.78;62.33
45888;BME280;31595;51.418;7.572;2022-12-11T03:05:19;99760.97;;;3.78;62.57
45888;BME280;31595;51.418;7.572;2022-12-11T03:07:46;99758.47;;;3.81;61.62
45888;BME280;31595;51.418;7.572;2022-12-11T03:10:16;99759.00;;;3.83;62.07
45888;BME280;31595;51.418;7.572;2022-12-11T03:12:46;99757.91;;;3.84;61.80
45888;BME280;31595;51.418;7.572;2022-12-11T03:15:16;99754.81;;;3.91;62.47
45888;BME280;31595;51.418;7.572;2022-12-11T03:17:55;99757.00;;;3.94;61.87
45888;BME280;31595;51.418;7.572;2022-12-11T03:20:34;99755.03;;;3.95;62.58
45888;BME280;31595;51.418;7.572;2022-12-11T03:23:11;99755.63;;;3.92;61.84
45888;BME280;31595;51.418;7.572;2022-12-11T03:25:44;99750.38;;;3.95;62.25
45888;BME280;31595;51.418;7.572;2022-12-11T03:28:16;99757.00;;;3.94;63.00
45888;BME280;31595;51.418;7.572;2022-12-11T03:30:47;99751.19;;;3.96;61.95
45888;BME280;31595;51.418;7.572;2022-12-11T03:33:21;99745.97;;;3.94;62.65
45888;BME280;31595;51.418;7.572;2022-12-11T03:35:52;99752.88;;;3.92;61.99
45888;BME280;31595;51.418;7.572;2022-12-11T03:38:25;99747.31;;;3.97;63.23
45888;BME280;31595;51.418;7.572;2022-12-11T03:40:57;99750.38;;;3.95;62.67
45888;BME280;31595;51.418;7.572;2022-12-11T03:43:27;99752.28;;;4.00;62.66
45888;BME280;31595;51.418;7.572;2022-12-11T03:45:58;99754.44;;;4.03;62.51
45888;BME280;31595;51.418;7.572;2022-12-11T03:48:32;99756.03;;;4.09;63.29
45888;BME280;31595;51.418;7.572;2022-12-11T03:51:04;99742.50;;;4.13;62.81
45888;BME280;31595;51.418;7.572;2022-12-11T03:53:32;99751.38;;;4.10;62.93
45888;BME280;31595;51.418;7.572;2022-12-11T03:56:01;99747.84;;;3.99;62.68
45888;BME280;31595;51.418;7.572;2022-12-11T03:58:29;99749.66;;;3.79;63.56
45888;BME280;31595;51.418;7.572;2022-12-11T04:00:57;99742.19;;;3.85;63.95
45888;BME280;31595;51.418;7.572;2022-12-11T04:03:24;99740.19;;;3.96;62.71
45888;BME280;31595;51.418;7.572;2022-12-11T04:05:55;99748.06;;;4.07;63.32
45888;BME280;31595;51.418;7.572;2022-12-11T04:08:22;99746.94;;;4.09;62.67
45888;BME280;31595;51.418;7.572;2022-12-11T04:10:49;99741.19;;;3.71;63.13
45888;BME280;31595;51.418;7.572;2022-12-11T04:13:39;99752.34;;;3.90;63.55
45888;BME280;31595;51.418;7.572;2022-12-11T04:16:07;99747.72;;;3.80;63.72
45888;BME280;31595;51.418;7.572;2022-12-11T04:18:33;99750.47;;;3.80;63.06
45888;BME280;31595;51.418;7.572;2022-12-11T04:21:19;99747.13;;;3.88;63.67
45888;BME280;31595;51.418;7.572;2022-12-11T04:24:04;99756.97;;;3.99;63.33
45888;BME280;31595;51.418;7.572;2022-12-11T04:26:45;99749.22;;;4.01;64.17
45888;BME280;31595;51.418;7.572;2022-12-11T04:29:13;99752.47;;;4.09;63.99
45888;BME280;31595;51.418;7.572;2022-12-11T04:31:40;99749.97;;;4.12;63.76
45888;BME280;31595;51.418;7.572;2022-12-11T04:34:08;99756.00;;;4.14;64.04
45888;BME280;31595;51.418;7.572;2022-12-11T04:36:36;99749.03;;;4.22;63.14
45888;BME280;31595;51.418;7.572;2022-12-11T04:39:04;99753.97;;;4.25;62.71
45888;BME280;31595;51.418;7.572;2022-12-11T04:41:32;99748.47;;;4.25;62.93
45888;BME280;31595;51.418;7.572;2022-12-11T04:44:00;99753.97;;;4.25;63.05
45888;BME280;31595;51.418;7.572;2022-12-11T04:46:27;99753.69;;;4.26;63.59
45888;BME280;31595;51.418;7.572;2022-12-11T04:48:58;99749.19;;;4.36;62.73
45888;BME280;31595;51.418;7.572;2022-12-11T04:51:26;99739.81;;;4.37;62.53
45888;BME280;31595;51.418;7.572;2022-12-11T04:53:56;99736.00;;;4.33;63.22
45888;BME280;31595;51.418;7.572;2022-12-11T04:56:23;99738.44;;;4.34;62.54
45888;BME280;31595;51.418;7.572;2022-12-11T04:58:51;99743.66;;;4.36;63.01
45888;BME280;31595;51.418;7.572;2022-12-11T05:01:20;99737.88;;;4.37;62.75
45888;BME280;31595;51.418;7.572;2022-12-11T05:03:48;99745.97;;;4.29;62.55
45888;BME280;31595;51.418;7.572;2022-12-11T05:06:15;99738.44;;;4.34;63.32
45888;BME280;31595;51.418;7.572;2022-12-11T05:08:43;99741.50;;;4.33;62.41
45888;BME280;31595;51.418;7.572;2022-12-11T05:11:13;99737.34;;;4.35;63.51
45888;BME280;31595;51.418;7.572;2022-12-11T05:13:42;99741.19;;;4.34;63.13
45888;BME280;31595;51.418;7.572;2022-12-11T05:16:11;99743.41;;;4.32;63.03
45888;BME280;31595;51.418;7.572;2022-12-11T05:18:38;99743.91;;;4.39;63.69
45888;BME280;31595;51.418;7.572;2022-12-11T05:21:10;99739.22;;;4.40;62.99
45888;BME280;31595;51.418;7.572;2022-12-11T05:23:41;99741.63;;;4.46;62.67
45888;BME280;31595;51.418;7.572;2022-12-11T05:26:13;99741.63;;;4.46;63.33
45888;BME280;31595;51.418;7.572;2022-12-11T05:28:42;99742.75;;;4.45;63.21
45888;BME280;31595;51.418;7.572;2022-12-11T05:31:12;99743.56;;;4.46;63.51
45888;BME280;31595;51.418;7.572;2022-12-11T05:33:39;99736.47;;;4.40;62.91
45888;BME280;31595;51.418;7.572;2022-12-11T05:36:07;99740.81;;;4.46;63.14
45888;BME280;31595;51.418;7.572;2022-12-11T05:38:34;99736.09;;;4.46;62.57
45888;BME280;31595;51.418;7.572;2022-12-11T05:41:03;99733.88;;;4.48;63.23
45888;BME280;31595;51.418;7.572;2022-12-11T05:43:34;99732.78;;;4.50;63.27
45888;BME280;31595;51.418;7.572;2022-12-11T05:46:05;99737.16;;;4.51;63.33
45888;BME280;31595;51.418;7.572;2022-12-11T05:48:34;99727.28;;;4.50;62.92
45888;BME280;31595;51.418;7.572;2022-12-11T05:51:02;99725.63;;;4.48;63.55
45888;BME280;31595;51.418;7.572;2022-12-11T05:53:30;99734.16;;;4.47;63.02
45888;BME280;31595;51.418;7.572;2022-12-11T05:56:00;99733.34;;;4.46;63.20
45888;BME280;31595;51.418;7.572;2022-12-11T05:58:28;99722.81;;;4.54;62.53
45888;BME280;31595;51.418;7.572;2022-12-11T06:00:57;99734.41;;;4.51;63.72
45888;BME280;31595;51.418;7.572;2022-12-11T06:03:24;99727.28;;;4.50;63.03
45888;BME280;31595;51.418;7.572;2022-12-11T06:05:52;99729.97;;;4.55;63.27
45888;BME280;31595;51.418;7.572;2022-12-11T06:08:19;99734.66;;;4.54;62.77
45888;BME280;31595;51.418;7.572;2022-12-11T06:10:47;99728.09;;;4.50;63.07
45888;BME280;31595;51.418;7.572;2022-12-11T06:13:15;99733.25;;;4.57;62.63
45888;BME280;31595;51.418;7.572;2022-12-11T06:15:42;99734.94;;;4.53;62.51
45888;BME280;31595;51.418;7.572;2022-12-11T06:18:11;99727.72;;;4.57;62.65
45888;BME280;31595;51.418;7.572;2022-12-11T06:20:38;99728.72;;;4.66;62.23
45888;BME280;31595;51.418;7.572;2022-12-11T06:23:05;99721.25;;;4.42;62.26
45888;BME280;31595;51.418;7.572;2022-12-11T06:25:33;99704.72;;;4.42;62.75
45888;BME280;31595;51.418;7.572;2022-12-11T06:28:01;99704.16;;;4.45;63.01
45888;BME280;31595;51.418;7.572;2022-12-11T06:30:32;99712.09;;;4.47;62.43
45888;BME280;31595;51.418;7.572;2022-12-11T06:32:59;99706.59;;;4.47;63.26
45888;BME280;31595;51.418;7.572;2022-12-11T06:35:28;99711.00;;;4.48;62.80
45888;BME280;31595;51.418;7.572;2022-12-11T06:37:55;99715.63;;;4.53;62.59
45888;BME280;31595;51.418;7.572;2022-12-11T06:40:23;99709.88;;;4.49;63.11
45888;BME280;31595;51.418;7.572;2022-12-11T06:42:50;99716.69;;;4.57;62.11
45888;BME280;31595;51.418;7.572;2022-12-11T06:45:18;99720.34;;;4.52;62.25
45888;BME280;31595;51.418;7.572;2022-12-11T06:47:45;99723.66;;;4.49;62.06
45888;BME280;31595;51.418;7.572;2022-12-11T06:50:12;99720.09;;;4.48;62.85
45888;BME280;31595;51.418;7.572;2022-12-11T06:52:41;99723.72;;;4.44;62.79
45888;BME280;31595;51.418;7.572;2022-12-11T06:55:08;99721.84;;;4.39;63.60
45888;BME280;31595;51.418;7.572;2022-12-11T06:57:39;99724.31;;;4.41;62.96
45888;BME280;31595;51.418;7.572;2022-12-11T07:00:07;99720.69;;;4.45;63.14
45888;BME280;31595;51.418;7.572;2022-12-11T07:02:35;99729.50;;;4.47;63.66
45888;BME280;31595;51.418;7.572;2022-12-11T07:05:03;99723.91;;;4.53;62.99
45888;BME280;31595;51.418;7.572;2022-12-11T07:07:30;99722.06;;;4.43;62.52
45888;BME280;31595;51.418;7.572;2022-12-11T07:09:59;99725.97;;;4.42;62.95
45888;BME280;31595;51.418;7.572;2022-12-11T07:12:26;99728.44;;;4.43;62.80
45888;BME280;31595;51.418;7.572;2022-12-11T07:14:53;99725.97;;;4.42;62.96
45888;BME280;31595;51.418;7.572;2022-12-11T07:17:21;99729.97;;;4.55;62.83
45888;BME280;31595;51.418;7.572;2022-12-11T07:19:48;99730.56;;;4.52;64.31
45888;BME280;31595;51.418;7.572;2022-12-11T07:22:15;99729.19;;;4.73;63.88
45888;BME280;31595;51.418;7.572;2022-12-11T07:24:42;99736.50;;;4.83;62.98
45888;BME280;31595;51.418;7.572;2022-12-11T07:27:11;99730.72;;;4.84;62.08
45888;BME280;31595;51.418;7.572;2022-12-11T07:29:38;99726.09;;;4.56;60.29
45888;BME280;31595;51.418;7.572;2022-12-11T07:32:05;99723.97;;;4.72;60.07
45888;BME280;31595;51.418;7.572;2022-12-11T07:34:33;99725.63;;;4.73;59.77
45888;BME280;31595;51.418;7.572;2022-12-11T07:37:00;99732.72;;;4.55;58.99
45888;BME280;31595;51.418;7.572;2022-12-11T07:39:27;99726.22;;;4.45;58.28
45888;BME280;31595;51.418;7.572;2022-12-11T07:41:54;99716.25;;;4.50;57.82
45888;BME280;31595;51.418;7.572;2022-12-11T07:44:23;99722.91;;;4.43;57.71
45888;BME280;31595;51.418;7.572;2022-12-11T07:46:50;99717.69;;;4.42;58.16
45888;BME280;31595;51.418;7.572;2022-12-11T07:49:18;99721.25;;;4.42;59.10
45888;BME280;31595;51.418;7.572;2022-12-11T07:51:45;99728.44;;;4.43;58.73
45888;BME280;31595;51.418;7.572;2022-12-11T07:54:14;99730.03;;;4.50;59.11
45888;BME280;31595;51.418;7.572;2022-12-11T07:56:42;99723.66;;;4.49;59.10
45888;BME280;31595;51.418;7.572;2022-12-11T07:59:10;99730.78;;;4.55;59.76
45888;BME280;31595;51.418;7.572;2022-12-11T08:01:39;99731.09;;;4.54;60.03
45888;BME280;31595;51.418;7.572;2022-12-11T08:04:08;99731.84;;;4.59;59.69
45888;BME280;31595;51.418;7.572;2022-12-11T08:06:38;99729.84;;;4.65;57.98
45888;BME280;31595;51.418;7.572;2022-12-11T08:09:07;99734.47;;;4.45;58.94
45888;BME280;31595;51.418;7.572;2022-12-11T08:11:35;99736.06;;;4.52;58.27
45888;BME280;31595;51.418;7.572;2022-12-11T08:14:03;99733.75;;;4.35;58.28
45888;BME280;31595;51.418;7.572;2022-12-11T08:16:31;99735.66;;;4.39;57.72
45888;BME280;31595;51.418;7.572;2022-12-11T08:19:00;99733.44;;;4.36;57.67
45888;BME280;31595;51.418;7.572;2022-12-11T08:21:27;99742.25;;;4.38;58.46
45888;BME280;31595;51.418;7.572;2022-12-11T08:23:55;99739.56;;;4.33;58.46
45888;BME280;31595;51.418;7.572;2022-12-11T08:26:23;99733.53;;;4.31;58.95
45888;BME280;31595;51.418;7.572;2022-12-11T08:28:51;99732.41;;;4.32;57.76
45888;BME280;31595;51.418;7.572;2022-12-11T08:31:19;99736.31;;;4.26;58.36
45888;BME280;31595;51.418;7.572;2022-12-11T08:33:47;99728.63;;;4.23;58.58
45888;BME280;31595;51.418;7.572;2022-12-11T08:36:20;99730.75;;;4.31;58.02
45888;BME280;31595;51.418;7.572;2022-12-11T08:38:48;99733.53;;;4.31;57.96
45888;BME280;31595;51.418;7.572;2022-12-11T08:41:17;99734.94;;;4.29;59.06
45888;BME280;31595;51.418;7.572;2022-12-11T08:43:45;99740.31;;;4.39;57.99
45888;BME280;31595;51.418;7.572;2022-12-11T08:46:13;99736.75;;;4.38;57.66
45888;BME280;31595;51.418;7.572;2022-12-11T08:48:41;99743.03;;;4.15;58.17
45888;BME280;31595;51.418;7.572;2022-12-11T08:51:11;99737.53;;;4.15;57.24
45888;BME280;31595;51.418;7.572;2022-12-11T08:53:40;99736.91;;;4.23;57.61
45888;BME280;31595;51.418;7.572;2022-12-11T08:56:10;99729.16;;;4.25;57.01
45888;BME280;31595;51.418;7.572;2022-12-11T08:58:37;99726.31;;;4.35;57.27
45888;BME280;31595;51.418;7.572;2022-12-11T09:01:06;99734.31;;;4.37;57.01
45888;BME280;31595;51.418;7.572;2022-12-11T09:03:33;99731.75;;;4.40;57.04
45888;BME280;31595;51.418;7.572;2022-12-11T09:06:03;99727.31;;;4.44;57.02
45888;BME280;31595;51.418;7.572;2022-12-11T09:08:32;99726.38;;;4.54;56.18
45888;BME280;31595;51.418;7.572;2022-12-11T09:11:05;99736.09;;;4.46;56.35
45888;BME280;31595;51.418;7.572;2022-12-11T09:13:33;99732.00;;;4.44;57.29
45888;BME280;31595;51.418;7.572;2022-12-11T09:16:02;99727.22;;;4.25;57.12
45888;BME280;31595;51.418;7.572;2022-12-11T09:18:30;99729.97;;;4.25;57.40
45888;BME280;31595;51.418;7.572;2022-12-11T09:20:59;99740.03;;;4.11;56.94
45888;BME280;31595;51.418;7.572;2022-12-11T09:23:26;99740.66;;;4.03;56.30
45888;BME280;31595;51.418;7.572;2022-12-11T09:25:54;99737.75;;;3.89;57.79
45888;BME280;31595;51.418;7.572;2022-12-11T09:28:23;99738.44;;;4.05;57.60
45888;BME280;31595;51.418;7.572;2022-12-11T09:30:51;99744.28;;;3.98;58.33
45888;BME280;31595;51.418;7.572;2022-12-11T09:33:18;99745.25;;;4.13;58.56
45888;BME280;31595;51.418;7.572;2022-12-11T09:35:45;99741.97;;;4.11;57.65
45888;BME280;31595;51.418;7.572;2022-12-11T09:38:22;99738.25;;;4.25;56.73
45888;BME280;31595;51.418;7.572;2022-12-11T09:40:49;99731.81;;;4.35;56.36
45888;BME280;31595;51.418;7.572;2022-12-11T09:43:26;99730.94;;;4.40;56.98
45888;BME280;31595;51.418;7.572;2022-12-11T09:46:00;99727.38;;;4.39;57.39
45888;BME280;31595;51.418;7.572;2022-12-11T09:48:32;99729.81;;;4.41;56.52
45888;BME280;31595;51.418;7.572;2022-12-11T09:51:02;99731.28;;;4.33;57.76
45888;BME280;31595;51.418;7.572;2022-12-11T09:53:34;99733.16;;;4.38;57.23
45888;BME280;31595;51.418;7.572;2022-12-11T09:56:09;99733.97;;;4.38;56.94
45888;BME280;31595;51.418;7.572;2022-12-11T09:58:50;99731.84;;;4.30;57.61
45888;BME280;31595;51.418;7.572;2022-12-11T10:01:23;99723.72;;;4.44;57.50
45888;BME280;31595;51.418;7.572;2022-12-11T10:04:11;99719.56;;;4.22;57.44
45888;BME280;31595;51.418;7.572;2022-12-11T10:06:47;99716.44;;;4.29;56.02
45888;BME280;31595;51.418;7.572;2022-12-11T10:09:25;99717.50;;;4.33;56.21
45888;BME280;31595;51.418;7.572;2022-12-11T10:12:04;99719.47;;;4.03;57.22
45888;BME280;31595;51.418;7.572;2022-12-11T10:14:44;99713.25;;;4.17;57.54
45888;BME280;31595;51.418;7.572;2022-12-11T10:17:19;99715.63;;;3.99;57.02
45888;BME280;31595;51.418;7.572;2022-12-11T10:19:47;99709.44;;;4.13;57.68
45888;BME280;31595;51.418;7.572;2022-12-11T10:22:18;99705.25;;;4.20;57.24
45888;BME280;31595;51.418;7.572;2022-12-11T10:24:53;99704.22;;;4.11;57.52
45888;BME280;31595;51.418;7.572;2022-12-11T10:27:24;99701.09;;;4.18;57.04
45888;BME280;31595;51.418;7.572;2022-12-11T10:30:01;99703.44;;;4.35;56.99
45888;BME280;31595;51.418;7.572;2022-12-11T10:32:38;99694.81;;;4.41;56.13
45888;BME280;31595;51.418;7.572;2022-12-11T10:35:16;99704.16;;;4.45;56.94
45888;BME280;31595;51.418;7.572;2022-12-11T10:37:44;99698.81;;;4.54;56.75
45888;BME280;31595;51.418;7.572;2022-12-11T10:40:12;99694.28;;;4.39;55.67
45888;BME280;31595;51.418;7.572;2022-12-11T10:42:50;99697.63;;;4.36;56.50
45888;BME280;31595;51.418;7.572;2022-12-11T10:45:19;99698.25;;;4.28;57.24
45888;BME280;31595;51.418;7.572;2022-12-11T10:47:47;99693.91;;;4.22;56.72
45888;BME280;31595;51.418;7.572;2022-12-11T10:50:22;99693.34;;;4.25;55.71
45888;BME280;31595;51.418;7.572;2022-12-11T10:52:50;99697.94;;;4.05;57.34
45888;BME280;31595;51.418;7.572;2022-12-11T10:55:20;99704.59;;;3.99;57.14
45888;BME280;31595;51.418;7.572;2022-12-11T10:57:57;99696.09;;;3.96;57.30
45888;BME280;31595;51.418;7.572;2022-12-11T11:00:32;99690.94;;;3.84;58.39
45888;BME280;31595;51.418;7.572;2022-12-11T11:03:00;99685.88;;;3.96;57.78
45888;BME280;31595;51.418;7.572;2022-12-11T11:05:30;99688.25;;;4.08;57.72
45888;BME280;31595;51.418;7.572;2022-12-11T11:08:03;99681.88;;;4.13;57.67
45888;BME280;31595;51.418;7.572;2022-12-11T11:10:36;99687.22;;;3.99;57.47
45888;BME280;31595;51.418;7.572;2022-12-11T11:13:04;99677.06;;;3.99;57.67
45888;BME280;31595;51.418;7.572;2022-12-11T11:15:32;99680.53;;;4.10;57.14
45888;BME280;31595;51.418;7.572;2022-12-11T11:18:03;99680.47;;;4.15;56.75
45888;BME280;31595;51.418;7.572;2022-12-11T11:20:35;99685.09;;;4.20;56.87
45888;BME280;31595;51.418;7.572;2022-12-11T11:23:10;99682.13;;;4.16;57.18
45888;BME280;31595;51.418;7.572;2022-12-11T11:25:48;99684.28;;;4.19;56.40
45888;BME280;31595;51.418;7.572;2022-12-11T11:28:18;99683.41;;;4.24;55.95
45888;BME280;31595;51.418;7.572;2022-12-11T11:30:58;99671.38;;;4.15;57.00
45888;BME280;31595;51.418;7.572;2022-12-11T11:33:27;99676.22;;;3.99;57.33
45888;BME280;31595;51.418;7.572;2022-12-11T11:35:56;99678.31;;;4.12;57.75
45888;BME280;31595;51.418;7.572;2022-12-11T11:38:27;99668.41;;;4.35;57.06
45888;BME280;31595;51.418;7.572;2022-12-11T11:41:03;99665.53;;;4.45;56.30
45888;BME280;31595;51.418;7.572;2022-12-11T11:43:37;99663.53;;;4.51;56.63
45888;BME280;31595;51.418;7.572;2022-12-11T11:46:12;99672.69;;;4.46;56.80
45888;BME280;31595;51.418;7.572;2022-12-11T11:48:48;99663.78;;;4.55;55.55
45888;BME280;31595;51.418;7.572;2022-12-11T11:51:22;99656.56;;;4.59;55.79
45888;BME280;31595;51.418;7.572;2022-12-11T11:53:52;99662.13;;;4.30;56.38
45888;BME280;31595;51.418;7.572;2022-12-11T11:56:22;99655.91;;;4.19;56.23
45888;BME280;31595;51.418;7.572;2022-12-11T11:58:58;99651.47;;;4.23;56.85
45888;BME280;31595;51.418;7.572;2022-12-11T12:01:28;99662.31;;;4.38;56.65
45888;BME280;31595;51.418;7.572;2022-12-11T12:03:56;99665.22;;;4.47;56.68
45888;BME280;31595;51.418;7.572;2022-12-11T12:06:32;99654.31;;;4.61;55.83
45888;BME280;31595;51.418;7.572;2022-12-11T12:09:13;99657.31;;;4.64;56.25
45888;BME280;31595;51.418;7.572;2022-12-11T12:11:48;99654.84;;;4.63;55.63
45888;BME280;31595;51.418;7.572;2022-12-11T12:14:20;99658.56;;;4.72;55.75
45888;BME280;31595;51.418;7.572;2022-12-11T12:17:04;99658.81;;;4.76;55.26
45888;BME280;31595;51.418;7.572;2022-12-11T12:19:50;99658.16;;;4.84;55.69
45888;BME280;31595;51.418;7.572;2022-12-11T12:22:36;99653.09;;;4.91;55.59
45888;BME280;31595;51.418;7.572;2022-12-11T12:25:15;99648.63;;;4.95;54.52
45888;BME280;31595;51.418;7.572;2022-12-11T12:27:50;99640.06;;;4.97;54.87
45888;BME280;31595;51.418;7.572;2022-12-11T12:30:19;99643.94;;;4.96;54.89
45888;BME280;31595;51.418;7.572;2022-12-11T12:32:59;99644.75;;;4.96;55.05
45888;BME280;31595;51.418;7.572;2022-12-11T12:35:33;99647.88;;;4.90;55.34
45888;BME280;31595;51.418;7.572;2022-12-11T12:38:07;99645.03;;;4.95;55.11
45888;BME280;31595;51.418;7.572;2022-12-11T12:40:48;99637.28;;;4.78;54.84
45888;BME280;31595;51.418;7.572;2022-12-11T12:43:43;99639.47;;;4.81;54.87
45888;BME280;31595;51.418;7.572;2022-12-11T12:46:28;99631.34;;;4.90;55.57
45888;BME280;31595;51.418;7.572;2022-12-11T12:49:02;99642.38;;;4.90;54.75
45888;BME280;31595;51.418;7.572;2022-12-11T12:51:30;99638.03;;;4.83;54.41
45888;BME280;31595;51.418;7.572;2022-12-11T12:54:00;99644.38;;;4.84;54.43
45888;BME280;31595;51.418;7.572;2022-12-11T12:56:30;99639.88;;;4.69;55.81
45888;BME280;31595;51.418;7.572;2022-12-11T12:59:00;99641.59;;;4.65;55.67
45888;BME280;31595;51.418;7.572;2022-12-11T13:01:28;99641.38;;;4.80;55.82
45888;BME280;31595;51.418;7.572;2022-12-11T13:03:58;99632.72;;;4.87;55.33
45888;BME280;31595;51.418;7.572;2022-12-11T13:06:30;99637.28;;;4.97;55.43
45888;BME280;31595;51.418;7.572;2022-12-11T13:09:09;99633.19;;;5.13;55.09
45888;BME280;31595;51.418;7.572;2022-12-11T13:11:38;99630.19;;;5.09;54.56
45888;BME280;31595;51.418;7.572;2022-12-11T13:14:20;99616.34;;;5.15;54.86
45888;BME280;31595;51.418;7.572;2022-12-11T13:16:52;99624.28;;;5.16;55.04
45888;BME280;31595;51.418;7.572;2022-12-11T13:19:34;99617.16;;;5.15;55.29
45888;BME280;31595;51.418;7.572;2022-12-11T13:22:20;99626.47;;;5.19;54.66
45888;BME280;31595;51.418;7.572;2022-12-11T13:24:57;99629.16;;;5.24;54.49
45888;BME280;31595;51.418;7.572;2022-12-11T13:27:36;99630.19;;;5.28;54.52
45888;BME280;31595;51.418;7.572;2022-12-11T13:30:06;99631.75;;;5.35;53.93